sensor_id;sensor_type;location;lat;lon;timestamp;pressure;altitude;pressure_sealevel;temperature
68939;BMP180;59064;45.294;11.816;2023-04-01T00:00:17;100204.40;;;10.50
68939;BMP180;59064;45.294;11.816;2023-04-01T00:02:43;100200.40;;;10.50
68939;BMP180;59064;45.294;11.816;2023-04-01T00:05:09;100201.00;;;10.50
68939;BMP180;59064;45.294;11.816;2023-04-01T00:07:39;100203.40;;;10.48
68939;BMP180;59064;45.294;11.816;2023-04-01T00:10:06;100202.40;;;10.50
68939;BMP180;59064;45.294;11.816;2023-04-01T00:12:33;100208.80;;;10.50
68939;BMP180;59064;45.294;11.816;2023-04-01T00:14:58;100204.20;;;10.50
68939;BMP180;59064;45.294;11.816;2023-04-01T00:17:24;100200.80;;;10.44
68939;BMP180;59064;45.294;11.816;2023-04-01T00:19:50;100200.80;;;10.42
68939;BMP180;59064;45.294;11.816;2023-04-01T00:22:15;100192.80;;;10.40
68939;BMP180;59064;45.294;11.816;2023-04-01T00:24:41;100187.20;;;10.30
68939;BMP180;59064;45.294;11.816;2023-04-01T00:27:07;100180.80;;;10.30
68939;BMP180;59064;45.294;11.816;2023-04-01T00:29:34;100176.80;;;10.20
68939;BMP180;59064;45.294;11.816;2023-04-01T00:32:00;100178.00;;;10.10
68939;BMP180;59064;45.294;11.816;2023-04-01T00:34:26;100175.20;;;10.00
68939;BMP180;59064;45.294;11.816;2023-04-01T00:36:52;100178.00;;;9.90
68939;BMP180;59064;45.294;11.816;2023-04-01T00:39:20;100176.40;;;9.80
68939;BMP180;59064;45.294;11.816;2023-04-01T00:41:46;100175.60;;;9.70
68939;BMP180;59064;45.294;11.816;2023-04-01T00:44:19;100177.40;;;9.60
68939;BMP180;59064;45.294;11.816;2023-04-01T00:46:45;100178.60;;;9.50
68939;BMP180;59064;45.294;11.816;2023-04-01T00:49:10;100179.20;;;9.50
68939;BMP180;59064;45.294;11.816;2023-04-01T00:51:36;100178.20;;;9.40
68939;BMP180;59064;45.294;11.816;2023-04-01T00:54:04;100176.20;;;9.30
68939;BMP180;59064;45.294;11.816;2023-04-01T00:56:34;100172.00;;;9.30
68939;BMP180;59064;45.294;11.816;2023-04-01T00:59:04;100179.00;;;9.40
68939;BMP180;59064;45.294;11.816;2023-04-01T01:01:34;100171.40;;;9.40
68939;BMP180;59064;45.294;11.816;2023-04-01T01:04:01;100170.00;;;9.40
68939;BMP180;59064;45.294;11.816;2023-04-01T01:09:25;100165.80;;;9.40
68939;BMP180;59064;45.294;11.816;2023-04-01T01:12:08;100162.00;;;9.30
68939;BMP180;59064;45.294;11.816;2023-04-01T01:17:26;100163.20;;;9.30
68939;BMP180;59064;45.294;11.816;2023-04-01T01:31:38;100156.00;;;9.20
68939;BMP180;59064;45.294;11.816;2023-04-01T01:36:59;100162.40;;;9.10
68939;BMP180;59064;45.294;11.816;2023-04-01T01:39:28;100162.60;;;9.00
68939;BMP180;59064;45.294;11.816;2023-04-01T01:42:02;100156.20;;;8.94
68939;BMP180;59064;45.294;11.816;2023-04-01T01:44:29;100157.80;;;8.90
68939;BMP180;59064;45.294;11.816;2023-04-01T01:46:56;100152.80;;;8.88
68939;BMP180;59064;45.294;11.816;2023-04-01T01:49:22;100162.00;;;8.88
68939;BMP180;59064;45.294;11.816;2023-04-01T01:51:48;100160.40;;;8.90
68939;BMP180;59064;45.294;11.816;2023-04-01T01:54:16;100159.80;;;8.90
68939;BMP180;59064;45.294;11.816;2023-04-01T01:56:45;100158.20;;;8.90
68939;BMP180;59064;45.294;11.816;2023-04-01T01:59:13;100157.80;;;8.92
68939;BMP180;59064;45.294;11.816;2023-04-01T02:01:42;100160.60;;;8.90
68939;BMP180;59064;45.294;11.816;2023-04-01T02:04:10;100165.40;;;8.90
68939;BMP180;59064;45.294;11.816;2023-04-01T02:06:38;100162.20;;;8.90
68939;BMP180;59064;45.294;11.816;2023-04-01T02:09:07;100162.00;;;8.80
68939;BMP180;59064;45.294;11.816;2023-04-01T02:11:52;100157.60;;;8.70
68939;BMP180;59064;45.294;11.816;2023-04-01T02:14:24;100153.20;;;8.60
68939;BMP180;59064;45.294;11.816;2023-04-01T02:17:00;100157.80;;;8.52
68939;BMP180;59064;45.294;11.816;2023-04-01T02:19:40;100159.40;;;8.50
68939;BMP180;59064;45.294;11.816;2023-04-01T02:22:11;100159.20;;;8.40
68939;BMP180;59064;45.294;11.816;2023-04-01T02:24:40;100158.20;;;8.30
68939;BMP180;59064;45.294;11.816;2023-04-01T02:27:06;100154.20;;;8.30
68939;BMP180;59064;45.294;11.816;2023-04-01T02:29:32;100146.40;;;8.30
68939;BMP180;59064;45.294;11.816;2023-04-01T02:31:58;100147.80;;;8.30
68939;BMP180;59064;45.294;11.816;2023-04-01T02:34:24;100145.20;;;8.26
68939;BMP180;59064;45.294;11.816;2023-04-01T02:36:51;100145.60;;;8.26
68939;BMP180;59064;45.294;11.816;2023-04-01T02:39:17;100147.80;;;8.20
68939;BMP180;59064;45.294;11.816;2023-04-01T02:41:44;100146.00;;;8.20
68939;BMP180;59064;45.294;11.816;2023-04-01T02:44:12;100148.40;;;8.20
68939;BMP180;59064;45.294;11.816;2023-04-01T02:46:38;100142.60;;;8.10
68939;BMP180;59064;45.294;11.816;2023-04-01T02:49:04;100145.20;;;8.10
68939;BMP180;59064;45.294;11.816;2023-04-01T02:51:29;100151.60;;;8.10
68939;BMP180;59064;45.294;11.816;2023-04-01T02:53:55;100154.20;;;8.00
68939;BMP180;59064;45.294;11.816;2023-04-01T02:56:21;100165.00;;;8.00
68939;BMP180;59064;45.294;11.816;2023-04-01T02:58:47;100174.80;;;7.90
68939;BMP180;59064;45.294;11.816;2023-04-01T03:01:12;100183.00;;;7.90
68939;BMP180;59064;45.294;11.816;2023-04-01T03:03:38;100182.80;;;7.80
68939;BMP180;59064;45.294;11.816;2023-04-01T03:06:08;100180.60;;;7.80
68939;BMP180;59064;45.294;11.816;2023-04-01T03:08:34;100185.40;;;7.78
68939;BMP180;59064;45.294;11.816;2023-04-01T03:11:00;100181.80;;;7.80
68939;BMP180;59064;45.294;11.816;2023-04-01T03:13:26;100184.20;;;7.80
68939;BMP180;59064;45.294;11.816;2023-04-01T03:15:51;100176.20;;;7.90
68939;BMP180;59064;45.294;11.816;2023-04-01T03:18:17;100174.00;;;7.90
68939;BMP180;59064;45.294;11.816;2023-04-01T03:20:43;100171.80;;;7.90
68939;BMP180;59064;45.294;11.816;2023-04-01T03:23:08;100176.40;;;7.90
68939;BMP180;59064;45.294;11.816;2023-04-01T03:25:33;100179.20;;;7.92
68939;BMP180;59064;45.294;11.816;2023-04-01T03:27:59;100172.20;;;7.90
68939;BMP180;59064;45.294;11.816;2023-04-01T03:30:26;100167.80;;;7.90
68939;BMP180;59064;45.294;11.816;2023-04-01T03:32:52;100168.20;;;7.90
68939;BMP180;59064;45.294;11.816;2023-04-01T03:35:17;100168.60;;;7.90
68939;BMP180;59064;45.294;11.816;2023-04-01T03:37:43;100167.60;;;7.90
68939;BMP180;59064;45.294;11.816;2023-04-01T03:40:09;100161.00;;;7.90
68939;BMP180;59064;45.294;11.816;2023-04-01T03:42:35;100164.40;;;7.90
68939;BMP180;59064;45.294;11.816;2023-04-01T03:45:01;100166.40;;;7.90
68939;BMP180;59064;45.294;11.816;2023-04-01T03:47:27;100172.80;;;7.80
68939;BMP180;59064;45.294;11.816;2023-04-01T03:49:54;100168.80;;;7.80
68939;BMP180;59064;45.294;11.816;2023-04-01T03:52:20;100168.80;;;7.80
68939;BMP180;59064;45.294;11.816;2023-04-01T03:54:45;100160.60;;;7.90
68939;BMP180;59064;45.294;11.816;2023-04-01T03:57:11;100157.60;;;7.90
68939;BMP180;59064;45.294;11.816;2023-04-01T03:59:37;100159.00;;;7.98
68939;BMP180;59064;45.294;11.816;2023-04-01T04:02:02;100173.00;;;8.00
68939;BMP180;59064;45.294;11.816;2023-04-01T04:04:28;100175.00;;;7.94
68939;BMP180;59064;45.294;11.816;2023-04-01T04:06:54;100179.20;;;7.90
68939;BMP180;59064;45.294;11.816;2023-04-01T04:09:20;100184.60;;;7.80
68939;BMP180;59064;45.294;11.816;2023-04-01T04:11:46;100185.00;;;7.90
68939;BMP180;59064;45.294;11.816;2023-04-01T04:14:12;100178.60;;;7.90
68939;BMP180;59064;45.294;11.816;2023-04-01T04:16:37;100175.20;;;7.90
68939;BMP180;59064;45.294;11.816;2023-04-01T04:19:03;100172.40;;;7.90
68939;BMP180;59064;45.294;11.816;2023-04-01T04:21:29;100165.80;;;7.84
68939;BMP180;59064;45.294;11.816;2023-04-01T04:23:54;100164.40;;;7.80
68939;BMP180;59064;45.294;11.816;2023-04-01T04:26:20;100166.20;;;7.80
68939;BMP180;59064;45.294;11.816;2023-04-01T04:28:46;100169.20;;;7.80
68939;BMP180;59064;45.294;11.816;2023-04-01T04:31:12;100168.60;;;7.90
68939;BMP180;59064;45.294;11.816;2023-04-01T04:33:43;100173.40;;;7.90
68939;BMP180;59064;45.294;11.816;2023-04-01T04:36:08;100175.60;;;7.74
68939;BMP180;59064;45.294;11.816;2023-04-01T04:38:34;100181.00;;;7.60
68939;BMP180;59064;45.294;11.816;2023-04-01T04:40:59;100184.00;;;7.50
68939;BMP180;59064;45.294;11.816;2023-04-01T04:43:25;100194.80;;;7.50
68939;BMP180;59064;45.294;11.816;2023-04-01T04:45:50;100200.80;;;7.40
68939;BMP180;59064;45.294;11.816;2023-04-01T04:48:16;100199.40;;;7.30
68939;BMP180;59064;45.294;11.816;2023-04-01T04:50:48;100197.00;;;7.30
68939;BMP180;59064;45.294;11.816;2023-04-01T04:53:15;100195.00;;;7.46
68939;BMP180;59064;45.294;11.816;2023-04-01T04:55:45;100196.00;;;7.70
68939;BMP180;59064;45.294;11.816;2023-04-01T04:58:11;100197.40;;;7.80
68939;BMP180;59064;45.294;11.816;2023-04-01T05:00:37;100195.40;;;7.90
68939;BMP180;59064;45.294;11.816;2023-04-01T05:03:03;100205.20;;;8.00
68939;BMP180;59064;45.294;11.816;2023-04-01T05:05:28;100204.60;;;8.00
68939;BMP180;59064;45.294;11.816;2023-04-01T05:07:54;100208.00;;;8.00
68939;BMP180;59064;45.294;11.816;2023-04-01T05:10:19;100213.40;;;8.00
68939;BMP180;59064;45.294;11.816;2023-04-01T05:12:46;100218.40;;;8.00
68939;BMP180;59064;45.294;11.816;2023-04-01T05:15:11;100219.00;;;8.00
68939;BMP180;59064;45.294;11.816;2023-04-01T05:17:37;100216.00;;;8.00
68939;BMP180;59064;45.294;11.816;2023-04-01T05:20:03;100213.00;;;7.96
68939;BMP180;59064;45.294;11.816;2023-04-01T05:22:29;100208.60;;;7.90
68939;BMP180;59064;45.294;11.816;2023-04-01T05:24:55;100211.00;;;7.80
68939;BMP180;59064;45.294;11.816;2023-04-01T05:27:20;100211.40;;;7.80
68939;BMP180;59064;45.294;11.816;2023-04-01T05:29:46;100217.80;;;7.80
68939;BMP180;59064;45.294;11.816;2023-04-01T05:32:11;100219.80;;;7.80
68939;BMP180;59064;45.294;11.816;2023-04-01T05:34:37;100231.20;;;7.76
68939;BMP180;59064;45.294;11.816;2023-04-01T05:37:02;100233.40;;;7.70
68939;BMP180;59064;45.294;11.816;2023-04-01T05:39:28;100236.80;;;7.70
68939;BMP180;59064;45.294;11.816;2023-04-01T05:41:53;100240.20;;;7.70
68939;BMP180;59064;45.294;11.816;2023-04-01T05:44:19;100247.20;;;7.70
68939;BMP180;59064;45.294;11.816;2023-04-01T05:46:45;100246.60;;;7.70
68939;BMP180;59064;45.294;11.816;2023-04-01T05:49:10;100248.40;;;7.70
68939;BMP180;59064;45.294;11.816;2023-04-01T05:51:36;100255.00;;;7.70
68939;BMP180;59064;45.294;11.816;2023-04-01T05:54:04;100250.20;;;7.66
68939;BMP180;59064;45.294;11.816;2023-04-01T05:56:30;100255.60;;;7.60
68939;BMP180;59064;45.294;11.816;2023-04-01T05:58:55;100259.60;;;7.50
68939;BMP180;59064;45.294;11.816;2023-04-01T06:01:21;100257.80;;;7.50
68939;BMP180;59064;45.294;11.816;2023-04-01T06:03:46;100258.20;;;7.58
68939;BMP180;59064;45.294;11.816;2023-04-01T06:06:38;100261.00;;;7.70
68939;BMP180;59064;45.294;11.816;2023-04-01T06:11:46;100259.60;;;8.00
68939;BMP180;59064;45.294;11.816;2023-04-01T06:19:47;100267.20;;;8.40
68939;BMP180;59064;45.294;11.816;2023-04-01T06:31:50;100267.00;;;9.00
68939;BMP180;59064;45.294;11.816;2023-04-01T06:37:10;100272.40;;;9.20
68939;BMP180;59064;45.294;11.816;2023-04-01T06:57:56;100297.80;;;10.92
68939;BMP180;59064;45.294;11.816;2023-04-01T07:00:30;100296.40;;;11.10
68939;BMP180;59064;45.294;11.816;2023-04-01T07:05:24;100306.00;;;11.50
68939;BMP180;59064;45.294;11.816;2023-04-01T07:07:53;100312.60;;;11.60
68939;BMP180;59064;45.294;11.816;2023-04-01T07:13:10;100323.60;;;11.72
68939;BMP180;59064;45.294;11.816;2023-04-01T07:15:41;100324.60;;;11.80
68939;BMP180;59064;45.294;11.816;2023-04-01T07:18:21;100321.60;;;11.90
68939;BMP180;59064;45.294;11.816;2023-04-01T07:20:48;100323.80;;;12.16
68939;BMP180;59064;45.294;11.816;2023-04-01T07:23:24;100332.80;;;12.40
68939;BMP180;59064;45.294;11.816;2023-04-01T07:25:56;100336.20;;;12.50
68939;BMP180;59064;45.294;11.816;2023-04-01T07:28:23;100336.40;;;12.60
68939;BMP180;59064;45.294;11.816;2023-04-01T07:33:48;100336.20;;;12.80
68939;BMP180;59064;45.294;11.816;2023-04-01T07:36:22;100337.80;;;13.10
68939;BMP180;59064;45.294;11.816;2023-04-01T07:38:57;100341.00;;;13.30
68939;BMP180;59064;45.294;11.816;2023-04-01T07:44:25;100344.60;;;13.10
68939;BMP180;59064;45.294;11.816;2023-04-01T07:50:11;100330.40;;;13.60
68939;BMP180;59064;45.294;11.816;2023-04-01T07:52:48;100337.40;;;13.70
68939;BMP180;59064;45.294;11.816;2023-04-01T07:55:31;100337.40;;;13.80
68939;BMP180;59064;45.294;11.816;2023-04-01T08:06:36;100346.00;;;14.68
68939;BMP180;59064;45.294;11.816;2023-04-01T08:09:12;100342.40;;;14.70
68939;BMP180;59064;45.294;11.816;2023-04-01T08:20:26;100354.60;;;14.50
68939;BMP180;59064;45.294;11.816;2023-04-01T08:23:00;100349.60;;;14.36
68939;BMP180;59064;45.294;11.816;2023-04-01T08:25:30;100346.20;;;14.40
68939;BMP180;59064;45.294;11.816;2023-04-01T08:28:10;100344.20;;;14.50
68939;BMP180;59064;45.294;11.816;2023-04-01T08:30:47;100342.00;;;14.52
68939;BMP180;59064;45.294;11.816;2023-04-01T08:33:31;100343.40;;;14.52
68939;BMP180;59064;45.294;11.816;2023-04-01T08:36:26;100339.20;;;14.60
68939;BMP180;59064;45.294;11.816;2023-04-01T08:50:12;100345.20;;;16.10
68939;BMP180;59064;45.294;11.816;2023-04-01T08:52:34;100349.00;;;16.10
68939;BMP180;59064;45.294;11.816;2023-04-01T08:57:55;100355.40;;;16.42
68939;BMP180;59064;45.294;11.816;2023-04-01T09:28:21;100377.00;;;18.32
68939;BMP180;59064;45.294;11.816;2023-04-01T09:41:30;100373.80;;;19.28
68939;BMP180;59064;45.294;11.816;2023-04-01T09:52:48;100363.00;;;19.20
68939;BMP180;59064;45.294;11.816;2023-04-01T09:55:33;100359.80;;;19.22
68939;BMP180;59064;45.294;11.816;2023-04-01T10:18:01;100346.20;;;20.20
68939;BMP180;59064;45.294;11.816;2023-04-01T10:26:20;100339.60;;;20.48
68939;BMP180;59064;45.294;11.816;2023-04-01T10:31:33;100341.40;;;20.80
68939;BMP180;59064;45.294;11.816;2023-04-01T10:41:59;100336.20;;;20.38
68939;BMP180;59064;45.294;11.816;2023-04-01T10:56:15;100337.60;;;21.50
68939;BMP180;59064;45.294;11.816;2023-04-01T11:36:40;100314.20;;;22.04
68939;BMP180;59064;45.294;11.816;2023-04-01T11:42:41;100311.40;;;22.60
68939;BMP180;59064;45.294;11.816;2023-04-01T11:45:24;100310.60;;;23.00
68939;BMP180;59064;45.294;11.816;2023-04-01T11:53:22;100312.00;;;23.80
68939;BMP180;59064;45.294;11.816;2023-04-01T12:04:27;100303.40;;;24.38
68939;BMP180;59064;45.294;11.816;2023-04-01T12:10:12;100294.40;;;24.40
68939;BMP180;59064;45.294;11.816;2023-04-01T12:15:43;100290.60;;;24.84
68939;BMP180;59064;45.294;11.816;2023-04-01T12:31:47;100282.20;;;24.40
68939;BMP180;59064;45.294;11.816;2023-04-01T12:37:06;100284.40;;;25.08
68939;BMP180;59064;45.294;11.816;2023-04-01T12:39:57;100283.20;;;25.40
68939;BMP180;59064;45.294;11.816;2023-04-01T12:45:02;100288.80;;;25.96
68939;BMP180;59064;45.294;11.816;2023-04-01T12:55:55;100289.20;;;26.68
68939;BMP180;59064;45.294;11.816;2023-04-01T13:28:21;100261.40;;;26.80
68939;BMP180;59064;45.294;11.816;2023-04-01T13:30:54;100261.40;;;27.28
68939;BMP180;59064;45.294;11.816;2023-04-01T13:36:19;100265.20;;;27.64
68939;BMP180;59064;45.294;11.816;2023-04-01T13:42:18;100261.20;;;28.94
68939;BMP180;59064;45.294;11.816;2023-04-01T13:44:49;100259.00;;;29.52
68939;BMP180;59064;45.294;11.816;2023-04-01T14:09:34;100251.60;;;30.24
68939;BMP180;59064;45.294;11.816;2023-04-01T14:12:47;100249.60;;;29.78
68939;BMP180;59064;45.294;11.816;2023-04-01T14:23:37;100254.80;;;28.50
68939;BMP180;59064;45.294;11.816;2023-04-01T14:41:50;100238.20;;;25.88
68939;BMP180;59064;45.294;11.816;2023-04-01T14:47:28;100231.20;;;28.10
68939;BMP180;59064;45.294;11.816;2023-04-01T14:50:11;100230.80;;;28.30
68939;BMP180;59064;45.294;11.816;2023-04-01T14:52:40;100230.00;;;28.28
68939;BMP180;59064;45.294;11.816;2023-04-01T15:05:56;100215.20;;;26.26
68939;BMP180;59064;45.294;11.816;2023-04-01T15:08:29;100218.20;;;26.14
68939;BMP180;59064;45.294;11.816;2023-04-01T15:11:23;100213.60;;;26.10
68939;BMP180;59064;45.294;11.816;2023-04-01T15:19:36;100207.40;;;26.40
68939;BMP180;59064;45.294;11.816;2023-04-01T15:31:01;100197.60;;;25.40
68939;BMP180;59064;45.294;11.816;2023-04-01T15:33:46;100194.40;;;24.38
68939;BMP180;59064;45.294;11.816;2023-04-01T15:38:58;100191.20;;;22.44
68939;BMP180;59064;45.294;11.816;2023-04-01T15:44:00;100185.80;;;22.80
68939;BMP180;59064;45.294;11.816;2023-04-01T15:46:46;100190.00;;;23.20
68939;BMP180;59064;45.294;11.816;2023-04-01T15:49:36;100187.80;;;23.78
68939;BMP180;59064;45.294;11.816;2023-04-01T15:52:23;100184.20;;;24.04
68939;BMP180;59064;45.294;11.816;2023-04-01T16:00:47;100178.00;;;24.80
68939;BMP180;59064;45.294;11.816;2023-04-01T16:21:54;100181.20;;;23.90
68939;BMP180;59064;45.294;11.816;2023-04-01T16:27:23;100175.20;;;23.66
68939;BMP180;59064;45.294;11.816;2023-04-01T16:38:19;100187.60;;;23.30
68939;BMP180;59064;45.294;11.816;2023-04-01T16:41:11;100182.60;;;23.10
68939;BMP180;59064;45.294;11.816;2023-04-01T16:43:50;100185.00;;;22.80
68939;BMP180;59064;45.294;11.816;2023-04-01T16:49:02;100182.20;;;22.30
68939;BMP180;59064;45.294;11.816;2023-04-01T16:56:45;100181.60;;;21.50
68939;BMP180;59064;45.294;11.816;2023-04-01T16:59:19;100182.60;;;21.04
68939;BMP180;59064;45.294;11.816;2023-04-01T17:10:02;100186.40;;;18.58
68939;BMP180;59064;45.294;11.816;2023-04-01T17:12:48;100191.40;;;18.30
68939;BMP180;59064;45.294;11.816;2023-04-01T17:20:41;100197.60;;;18.10
68939;BMP180;59064;45.294;11.816;2023-04-01T17:23:34;100202.00;;;18.00
68939;BMP180;59064;45.294;11.816;2023-04-01T17:37:04;100228.60;;;16.50
68939;BMP180;59064;45.294;11.816;2023-04-01T17:39:43;100233.80;;;16.20
68939;BMP180;59064;45.294;11.816;2023-04-01T17:42:21;100239.00;;;15.96
68939;BMP180;59064;45.294;11.816;2023-04-01T17:45:00;100247.60;;;15.70
68939;BMP180;59064;45.294;11.816;2023-04-01T17:47:36;100253.80;;;15.58
68939;BMP180;59064;45.294;11.816;2023-04-01T18:03:54;100261.20;;;14.58
68939;BMP180;59064;45.294;11.816;2023-04-01T18:26:08;100283.80;;;13.60
68939;BMP180;59064;45.294;11.816;2023-04-01T18:28:38;100286.20;;;13.50
68939;BMP180;59064;45.294;11.816;2023-04-01T18:31:10;100287.00;;;13.40
68939;BMP180;59064;45.294;11.816;2023-04-01T18:36:55;100296.20;;;13.30
68939;BMP180;59064;45.294;11.816;2023-04-01T18:39:30;100303.60;;;13.20
68939;BMP180;59064;45.294;11.816;2023-04-01T18:42:23;100302.80;;;13.10
68939;BMP180;59064;45.294;11.816;2023-04-01T18:44:59;100301.60;;;13.10
68939;BMP180;59064;45.294;11.816;2023-04-01T18:47:38;100299.80;;;13.00
68939;BMP180;59064;45.294;11.816;2023-04-01T18:50:41;100296.60;;;13.00
68939;BMP180;59064;45.294;11.816;2023-04-01T18:53:12;100298.00;;;12.90
68939;BMP180;59064;45.294;11.816;2023-04-01T18:55:41;100294.80;;;12.80
68939;BMP180;59064;45.294;11.816;2023-04-01T19:06:35;100308.60;;;12.60
68939;BMP180;59064;45.294;11.816;2023-04-01T19:09:23;100308.20;;;12.50
68939;BMP180;59064;45.294;11.816;2023-04-01T19:14:54;100313.20;;;12.40
68939;BMP180;59064;45.294;11.816;2023-04-01T19:23:34;100312.20;;;12.30
68939;BMP180;59064;45.294;11.816;2023-04-01T19:26:01;100313.00;;;12.20
68939;BMP180;59064;45.294;11.816;2023-04-01T19:36:27;100323.00;;;12.10
68939;BMP180;59064;45.294;11.816;2023-04-01T19:39:09;100332.20;;;12.04
68939;BMP180;59064;45.294;11.816;2023-04-01T19:50:14;100353.00;;;11.90
68939;BMP180;59064;45.294;11.816;2023-04-01T19:52:47;100351.00;;;11.90
68939;BMP180;59064;45.294;11.816;2023-04-01T19:57:58;100341.60;;;12.00
68939;BMP180;59064;45.294;11.816;2023-04-01T20:00:44;100344.80;;;12.00
68939;BMP180;59064;45.294;11.816;2023-04-01T20:08:39;100348.40;;;12.10
68939;BMP180;59064;45.294;11.816;2023-04-01T20:11:13;100346.40;;;12.12
68939;BMP180;59064;45.294;11.816;2023-04-01T20:16:50;100344.40;;;12.20
68939;BMP180;59064;45.294;11.816;2023-04-01T20:25:33;100343.00;;;12.10
68939;BMP180;59064;45.294;11.816;2023-04-01T20:34:12;100343.60;;;12.00
68939;BMP180;59064;45.294;11.816;2023-04-01T20:53:29;100357.80;;;11.60
68939;BMP180;59064;45.294;11.816;2023-04-01T21:01:47;100363.20;;;11.50
68939;BMP180;59064;45.294;11.816;2023-04-01T21:07:25;100361.80;;;11.40
68939;BMP180;59064;45.294;11.816;2023-04-01T21:13:10;100356.80;;;11.30
68939;BMP180;59064;45.294;11.816;2023-04-01T21:32:52;100387.00;;;11.30
68939;BMP180;59064;45.294;11.816;2023-04-01T21:40:44;100388.60;;;11.30
68939;BMP180;59064;45.294;11.816;2023-04-01T21:48:58;100398.20;;;11.30
68939;BMP180;59064;45.294;11.816;2023-04-01T22:00:32;100394.60;;;11.10
68939;BMP180;59064;45.294;11.816;2023-04-01T22:14:45;100395.20;;;10.96
68939;BMP180;59064;45.294;11.816;2023-04-01T22:23:30;100400.40;;;10.90
68939;BMP180;59064;45.294;11.816;2023-04-01T22:31:10;100396.20;;;10.80
68939;BMP180;59064;45.294;11.816;2023-04-01T22:34:13;100400.40;;;10.80
68939;BMP180;59064;45.294;11.816;2023-04-01T22:39:35;100400.40;;;10.70
68939;BMP180;59064;45.294;11.816;2023-04-01T22:44:53;100394.40;;;10.70
68939;BMP180;59064;45.294;11.816;2023-04-01T22:50:20;100392.40;;;10.60
68939;BMP180;59064;45.294;11.816;2023-04-01T22:52:51;100389.60;;;10.58
68939;BMP180;59064;45.294;11.816;2023-04-01T22:55:26;100387.40;;;10.50
68939;BMP180;59064;45.294;11.816;2023-04-01T22:58:00;100390.60;;;10.52
68939;BMP180;59064;45.294;11.816;2023-04-01T23:00:33;100392.40;;;10.60
68939;BMP180;59064;45.294;11.816;2023-04-01T23:03:22;100391.60;;;10.60
68939;BMP180;59064;45.294;11.816;2023-04-01T23:05:59;100396.80;;;10.60
68939;BMP180;59064;45.294;11.816;2023-04-01T23:11:25;100395.00;;;10.70
68939;BMP180;59064;45.294;11.816;2023-04-01T23:16:41;100403.80;;;10.70
68939;BMP180;59064;45.294;11.816;2023-04-01T23:19:25;100407.20;;;10.70
68939;BMP180;59064;45.294;11.816;2023-04-01T23:25:28;100411.60;;;10.70
68939;BMP180;59064;45.294;11.816;2023-04-01T23:38:17;100417.40;;;10.80
68939;BMP180;59064;45.294;11.816;2023-04-01T23:40:43;100419.80;;;10.80
68939;BMP180;59064;45.294;11.816;2023-04-01T23:43:27;100417.80;;;10.82
68939;BMP180;59064;45.294;11.816;2023-04-01T23:45:55;100423.80;;;10.90
68939;BMP180;59064;45.294;11.816;2023-04-01T23:48:27;100414.80;;;10.90
68939;BMP180;59064;45.294;11.816;2023-04-01T23:50:53;100417.80;;;11.00
68939;BMP180;59064;45.294;11.816;2023-04-01T23:53:24;100416.40;;;11.00
68939;BMP180;59064;45.294;11.816;2023-04-01T23:55:51;100421.60;;;11.00
